Time;durP1;ratioP1;P1;durP2;ratioP2;P2;SDS_P1;SDS_P2;PMS_P1;PMS_P2;Temp;Humidity;BMP_temperature;BMP_pressure;BME280_temperature;BME280_humidity;BME280_pressure;Samples;Min_cycle;Max_cycle;Signal;HPM_P1;HPM_P2
2022/07/01 00:01:22;;;;;;;19.20;13.35;;;;;;;12.32;100.00;100514.25;5052348;28;20028;-75
2022/07/01 00:03:50;;;;;;;20.63;13.63;;;;;;;12.37;100.00;100512.22;5057723;28;20035;-74
2022/07/01 00:06:19;;;;;;;20.25;13.70;;;;;;;11.93;100.00;100444.38;5062167;28;20016;-74
2022/07/01 00:08:45;;;;;;;23.35;17.55;;;;;;;12.35;100.00;100506.16;5081591;28;20024;-74
2022/07/01 00:11:11;;;;;;;22.45;16.92;;;;;;;12.36;100.00;100481.53;5066202;28;20036;-75
2022/07/01 00:13:36;;;;;;;24.35;19.20;;;;;;;12.45;100.00;100488.91;5079218;28;20475;-75
2022/07/01 00:16:01;;;;;;;21.92;18.92;;;;;;;12.44;100.00;100493.31;5066077;28;20458;-74
2022/07/01 00:18:27;;;;;;;24.23;16.77;;;;;;;12.46;100.00;100498.50;5052543;28;20404;-74
2022/07/01 00:20:52;;;;;;;23.90;17.02;;;;;;;12.38;100.00;100483.13;5062375;28;20067;-74
2022/07/01 00:23:18;;;;;;;21.23;16.80;;;;;;;12.33;100.00;100465.88;5089344;28;20459;-74
2022/07/01 00:25:44;;;;;;;26.98;18.40;;;;;;;12.35;100.00;100483.31;5080277;28;20118;-73
2022/07/01 00:28:10;;;;;;;27.35;17.40;;;;;;;12.20;100.00;100461.28;5043722;28;20127;-73
2022/07/01 00:30:35;;;;;;;19.50;15.65;;;;;;;12.28;100.00;100493.34;5087587;28;20024;-73
2022/07/01 00:33:00;;;;;;;30.35;19.33;;;;;;;12.24;100.00;100486.53;5057584;28;20028;-73
2022/07/01 00:35:26;;;;;;;19.88;15.15;;;;;;;12.21;100.00;100486.72;5087366;28;20021;-74
2022/07/01 00:37:51;;;;;;;25.25;16.30;;;;;;;12.20;100.00;100485.00;5074705;28;20549;-73
2022/07/01 00:40:16;;;;;;;19.55;16.00;;;;;;;12.08;100.00;100467.25;5081245;28;20029;-74
2022/07/01 00:42:43;;;;;;;19.17;16.90;;;;;;;12.14;100.00;100485.34;5084967;28;20047;-73
2022/07/01 00:45:12;;;;;;;19.75;16.08;;;;;;;12.09;100.00;100481.28;5067681;28;20069;-73
2022/07/01 00:47:40;;;;;;;24.42;16.55;;;;;;;12.11;100.00;100503.94;5048407;28;20043;-74
2022/07/01 00:50:11;;;;;;;22.80;14.75;;;;;;;12.08;100.00;100516.44;5089535;28;20032;-74
2022/07/01 00:52:36;;;;;;;23.70;16.45;;;;;;;12.08;100.00;100524.34;5087131;28;20118;-74
2022/07/01 00:55:07;;;;;;;19.73;16.30;;;;;;;12.13;100.00;100538.94;5070908;28;20103;-75
2022/07/01 00:57:34;;;;;;;22.05;16.88;;;;;;;12.20;100.00;100542.13;5049394;28;20020;-75
2022/07/01 01:00:28;;;;;;;27.33;15.55;;;;;;;12.19;100.00;100538.63;5081679;28;20031;-75
2022/07/01 01:02:53;;;;;;;22.38;15.73;;;;;;;12.26;100.00;100541.78;5077318;28;20036;-76
2022/07/01 01:05:20;;;;;;;18.58;15.57;;;;;;;12.14;100.00;100522.22;5078047;28;20024;-76
2022/07/01 01:07:46;;;;;;;18.20;14.48;;;;;;;12.11;100.00;100522.38;5069519;28;20086;-76
2022/07/01 01:10:13;;;;;;;19.67;12.65;;;;;;;12.12;100.00;100539.91;5056139;28;20038;-75
2022/07/01 01:12:38;;;;;;;17.98;13.23;;;;;;;12.20;100.00;100547.41;5090570;28;20020;-76
2022/07/01 01:15:04;;;;;;;23.38;13.35;;;;;;;12.22;100.00;100546.38;5066664;28;20142;-76
2022/07/01 01:17:30;;;;;;;15.40;12.88;;;;;;;12.15;100.00;100534.47;5062689;28;20039;-76
2022/07/01 01:19:55;;;;;;;14.00;11.18;;;;;;;12.09;100.00;100532.16;5088154;28;20050;-76
2022/07/01 01:22:20;;;;;;;17.05;12.73;;;;;;;12.12;100.00;100539.91;5091913;28;20466;-75
2022/07/01 01:24:49;;;;;;;14.20;12.35;;;;;;;12.07;100.00;100539.28;5082146;28;20021;-75
2022/07/01 01:27:16;;;;;;;14.85;11.02;;;;;;;12.02;100.00;100527.31;5062019;28;20097;-75
2022/07/01 01:29:42;;;;;;;11.88;10.27;;;;;;;12.07;100.00;100531.38;5064294;28;20525;-74
2022/07/01 01:32:07;;;;;;;13.30;10.95;;;;;;;12.09;100.00;100532.16;5067123;28;20021;-77
2022/07/01 01:34:36;;;;;;;12.50;9.50;;;;;;;12.06;100.00;100526.22;5056430;28;20493;-76
2022/07/01 01:37:03;;;;;;;9.20;8.25;;;;;;;12.06;100.00;100518.31;5083188;28;20027;-76
2022/07/01 01:39:28;;;;;;;11.50;10.05;;;;;;;12.08;100.00;100535.72;5054199;28;20020;-75
2022/07/01 01:41:53;;;;;;;13.40;9.48;;;;;;;11.67;100.00;100473.88;5067828;28;20464;-76
2022/07/01 01:44:19;;;;;;;12.75;9.27;;;;;;;11.98;100.00;100525.78;5056564;28;20080;-76
2022/07/01 01:46:44;;;;;;;11.02;8.20;;;;;;;12.04;100.00;100544.72;5070360;28;20091;-75
2022/07/01 01:49:10;;;;;;;11.70;8.15;;;;;;;11.91;100.00;100524.41;5057116;28;20486;-76
2022/07/01 01:51:36;;;;;;;10.80;8.63;;;;;;;12.05;100.00;100542.94;5055806;28;20394;-76
2022/07/01 01:54:01;;;;;;;11.65;8.25;;;;;;;12.06;100.00;100556.03;5070045;28;20039;-76
2022/07/01 01:56:27;;;;;;;9.90;7.85;;;;;;;11.90;100.00;100522.69;5043197;28;20029;-75
2022/07/01 01:58:52;;;;;;;9.60;8.13;;;;;;;12.03;100.00;100555.34;5043875;28;20032;-76
2022/07/01 02:01:19;;;;;;;9.05;7.72;;;;;;;12.02;100.00;100561.56;5055040;28;20024;-76
2022/07/01 02:03:46;;;;;;;11.77;8.40;;;;;;;12.00;100.00;100564.25;5057201;28;20028;-76
2022/07/01 02:06:13;;;;;;;12.23;8.07;;;;;;;11.99;100.00;100549.41;5060010;28;20067;-76
2022/07/01 02:08:39;;;;;;;12.80;9.23;;;;;;;12.01;100.00;100547.53;5085349;28;20029;-76
2022/07/01 02:11:05;;;;;;;9.20;8.18;;;;;;;11.97;100.00;100540.72;5072018;28;20129;-76
2022/07/01 02:13:30;;;;;;;11.45;6.60;;;;;;;11.90;100.00;100526.16;5073382;28;20020;-77
2022/07/01 02:15:56;;;;;;;12.82;7.25;;;;;;;11.93;100.00;100526.00;5092276;28;20390;-75
2022/07/01 02:18:22;;;;;;;7.97;7.10;;;;;;;12.00;100.00;100527.38;5059628;28;20052;-75
2022/07/01 02:20:47;;;;;;;10.85;7.95;;;;;;;11.98;100.00;100529.25;5083354;28;20035;-76
2022/07/01 02:23:13;;;;;;;8.52;7.28;;;;;;;11.75;100.00;100498.91;5053858;28;20051;-76
2022/07/01 02:25:38;;;;;;;12.02;6.95;;;;;;;11.46;100.00;100453.94;5058232;28;20103;-76
2022/07/01 02:28:04;;;;;;;8.40;7.53;;;;;;;11.51;100.00;100473.00;5064497;28;20033;-76
2022/07/01 02:30:30;;;;;;;12.02;7.97;;;;;;;11.96;100.00;100553.97;5093974;28;20165;-75
2022/07/01 02:32:56;;;;;;;10.45;8.23;;;;;;;11.94;100.00;100559.31;5090682;28;20370;-75
2022/07/01 02:35:21;;;;;;;11.95;9.30;;;;;;;11.79;100.00;100529.38;5082154;28;20025;-75
2022/07/01 02:37:47;;;;;;;12.63;9.23;;;;;;;11.83;100.00;100551.13;5074179;28;20028;-75
2022/07/01 02:40:13;;;;;;;11.07;8.60;;;;;;;11.83;100.00;100559.03;5091519;28;20095;-75
2022/07/01 02:42:39;;;;;;;11.73;9.13;;;;;;;11.95;100.00;100589.13;5056524;28;20047;-75
2022/07/01 02:45:06;;;;;;;11.35;9.60;;;;;;;11.88;100.00;100583.34;5071480;28;20027;-75
2022/07/01 02:47:35;;;;;;;15.23;9.00;;;;;;;11.93;100.00;100576.03;5058950;28;20187;-75
2022/07/01 02:50:02;;;;;;;10.50;8.88;;;;;;;11.99;100.00;100578.38;5076591;28;20043;-75
2022/07/01 02:52:27;;;;;;;14.73;9.43;;;;;;;11.95;100.00;100576.81;5058503;28;20023;-74
2022/07/01 02:54:54;;;;;;;11.10;9.50;;;;;;;12.05;100.00;100606.16;5088360;28;20020;-75
2022/07/01 02:57:20;;;;;;;12.45;9.73;;;;;;;12.02;100.00;100607.19;5071791;28;20083;-74
2022/07/01 02:59:45;;;;;;;16.42;10.02;;;;;;;12.02;100.00;100582.63;5056920;28;20989;-74
2022/07/01 03:02:10;;;;;;;15.77;10.70;;;;;;;12.09;100.00;100587.50;5085368;28;20031;-74
2022/07/01 03:04:36;;;;;;;10.82;9.73;;;;;;;12.05;100.00;100583.31;5087680;28;20060;-73
2022/07/01 03:07:01;;;;;;;15.00;10.07;;;;;;;12.12;100.00;100587.31;5057693;28;20399;-72
2022/07/01 03:09:26;;;;;;;20.77;10.23;;;;;;;12.04;100.00;100576.31;5087751;28;20037;-73
2022/07/01 03:11:52;;;;;;;13.40;9.90;;;;;;;12.07;100.00;100578.78;5075449;28;20379;-72
2022/07/01 03:14:17;;;;;;;14.73;10.60;;;;;;;12.04;100.00;100578.97;5070907;28;20387;-72
2022/07/01 03:16:42;;;;;;;11.68;9.65;;;;;;;12.01;100.00;100579.13;5060437;28;20387;-72
2022/07/01 03:19:09;;;;;;;15.13;9.93;;;;;;;12.03;100.00;100600.97;5067437;28;20107;-72
2022/07/01 03:21:34;;;;;;;13.75;9.63;;;;;;;12.04;100.00;100600.03;5054119;28;20060;-72
2022/07/01 03:23:59;;;;;;;16.95;9.35;;;;;;;11.82;100.00;100570.50;5067562;28;20119;-72
2022/07/01 03:26:25;;;;;;;14.85;8.75;;;;;;;12.04;100.00;100615.84;5072301;28;20060;-73
2022/07/01 03:28:50;;;;;;;17.23;9.73;;;;;;;11.97;100.00;100618.88;5076348;28;20032;-72
2022/07/01 03:31:16;;;;;;;10.15;7.70;;;;;;;12.06;100.00;100640.31;5059280;28;20521;-73
2022/07/01 03:33:41;;;;;;;18.42;8.75;;;;;;;11.93;100.00;100620.81;5048411;28;20138;-74
2022/07/01 03:36:06;;;;;;;9.57;8.15;;;;;;;11.98;100.00;100626.69;5080894;28;20482;-73
2022/07/01 03:38:32;;;;;;;11.40;8.18;;;;;;;11.98;100.00;100625.84;5087952;28;20086;-73
2022/07/01 03:40:57;;;;;;;15.95;8.45;;;;;;;12.02;100.00;100640.56;5080190;28;20030;-73
2022/07/01 03:43:22;;;;;;;13.02;8.35;;;;;;;11.98;100.00;100637.22;5067626;28;20103;-72
2022/07/01 03:45:48;;;;;;;12.30;8.70;;;;;;;11.93;100.00;100627.88;5090605;28;20027;-72
2022/07/01 03:48:13;;;;;;;11.93;8.98;;;;;;;11.82;100.00;100610.00;5085688;28;20379;-74
2022/07/01 03:50:39;;;;;;;11.90;8.05;;;;;;;11.93;100.00;100638.41;5051413;28;20110;-75
2022/07/01 03:55:48;;;;;;;11.37;9.17;;;;;;;11.90;100.00;100638.53;5066758;28;20086;-73
2022/07/01 03:58:13;;;;;;;15.85;9.98;;;;;;;11.89;100.00;100642.97;5069025;28;20306;-73
2022/07/01 04:00:39;;;;;;;13.82;8.48;;;;;;;11.95;100.00;100637.41;5068279;28;20033;-73
2022/07/01 04:03:06;;;;;;;14.65;9.55;;;;;;;11.96;100.00;100641.75;5059445;28;20025;-73
2022/07/01 04:05:34;;;;;;;14.98;9.63;;;;;;;11.99;100.00;100648.63;5042397;28;20482;-73
2022/07/01 04:08:00;;;;;;;14.95;10.38;;;;;;;11.93;100.00;100635.78;5060786;28;20606;-73
2022/07/01 04:10:25;;;;;;;13.30;9.27;;;;;;;12.00;100.00;100639.78;5073954;28;20024;-73
2022/07/01 04:12:50;;;;;;;14.45;9.70;;;;;;;11.98;100.00;100629.34;5041103;28;20056;-72
2022/07/01 04:15:17;;;;;;;17.55;10.02;;;;;;;12.15;100.00;100639.84;5064564;28;20104;-73
2022/07/01 04:17:43;;;;;;;13.63;11.80;;;;;;;12.18;100.00;100644.94;5066752;28;20020;-73
2022/07/01 04:20:09;;;;;;;13.63;10.30;;;;;;;12.06;100.00;100629.78;5082442;28;20066;-73
2022/07/01 04:22:35;;;;;;;15.32;10.57;;;;;;;12.21;100.00;100642.13;5065897;28;20030;-73
2022/07/01 04:25:03;;;;;;;20.10;10.25;;;;;;;12.28;100.00;100651.44;5086294;28;20016;-73
2022/07/01 04:27:28;;;;;;;16.77;10.52;;;;;;;12.32;100.00;100653.91;5066071;28;20020;-73
2022/07/01 04:29:54;;;;;;;13.93;10.85;;;;;;;12.36;100.00;100644.91;5071240;28;20067;-72
2022/07/01 04:32:19;;;;;;;14.75;10.95;;;;;;;12.36;100.00;100642.25;5059485;28;20036;-72
2022/07/01 04:34:45;;;;;;;14.13;10.90;;;;;;;12.31;100.00;100634.59;5073207;28;20032;-72
2022/07/01 04:37:10;;;;;;;14.15;10.60;;;;;;;12.23;100.00;100616.56;5075511;28;20043;-71
2022/07/01 04:39:36;;;;;;;17.52;11.82;;;;;;;12.29;100.00;100624.16;5085536;28;20036;-73
2022/07/01 04:42:02;;;;;;;14.15;10.57;;;;;;;12.42;100.00;100647.19;5076960;28;20389;-75
2022/07/01 04:44:33;;;;;;;17.60;10.82;;;;;;;12.38;100.00;100645.66;5066925;28;20383;-75
2022/07/01 04:46:59;;;;;;;14.35;10.15;;;;;;;12.56;100.00;100665.75;5082104;28;20032;-72
2022/07/01 04:49:24;;;;;;;17.40;10.63;;;;;;;12.59;100.00;100670.88;5062629;28;20062;-75
2022/07/01 04:51:50;;;;;;;15.70;10.70;;;;;;;12.58;100.00;100656.84;5062324;28;20115;-74
2022/07/01 04:54:15;;;;;;;18.17;10.98;;;;;;;12.65;100.00;100658.19;5076425;28;20331;-72
2022/07/01 04:56:41;;;;;;;14.73;10.70;;;;;;;12.61;100.00;100643.47;5087172;28;20033;-71
2022/07/01 04:59:06;;;;;;;12.20;10.00;;;;;;;12.47;100.00;100619.66;5044158;28;20162;-72
2022/07/01 05:01:31;;;;;;;21.13;10.35;;;;;;;12.52;100.00;100632.59;5084824;28;20075;-72
2022/07/01 05:03:57;;;;;;;12.23;8.90;;;;;;;12.59;100.00;100645.34;5061501;28;20538;-72
2022/07/01 05:06:23;;;;;;;13.43;9.73;;;;;;;12.58;100.00;100648.91;5079047;28;20026;-71
2022/07/01 05:08:48;;;;;;;13.10;10.25;;;;;;;12.54;100.00;100651.81;5072804;28;20032;-72
2022/07/01 05:11:13;;;;;;;16.65;9.85;;;;;;;12.59;100.00;100657.69;5082286;28;20471;-72
2022/07/01 05:13:39;;;;;;;11.38;9.70;;;;;;;12.61;100.00;100653.16;5067996;28;20035;-72
2022/07/01 05:16:04;;;;;;;13.43;9.35;;;;;;;12.67;100.00;100668.69;5071859;28;20078;-72
2022/07/01 05:23:58;;;;;;;14.73;10.03;;;;;;;12.62;100.00;100639.06;5060158;28;20068;-72
2022/07/01 05:26:25;;;;;;;14.32;9.65;;;;;;;12.54;100.00;100617.56;5049535;28;20468;-72
2022/07/01 05:28:51;;;;;;;12.60;9.30;;;;;;;12.45;100.00;100600.44;5077285;28;20035;-72
2022/07/01 05:31:17;;;;;;;12.57;8.82;;;;;;;12.71;100.00;100642.03;5012202;28;20036;-73
2022/07/01 05:33:42;;;;;;;15.55;8.90;;;;;;;12.51;100.00;100612.44;5078491;28;20378;-72
2022/07/01 05:36:08;;;;;;;21.65;11.02;;;;;;;12.77;100.00;100644.34;5061759;28;20024;-72
2022/07/01 05:38:33;;;;;;;12.60;9.13;;;;;;;12.92;100.00;100650.56;5054615;28;20170;-71
2022/07/01 05:40:58;;;;;;;12.40;8.23;;;;;;;12.90;100.00;100639.25;5051132;28;20020;-72
2022/07/01 05:43:27;;;;;;;17.73;9.20;;;;;;;12.92;100.00;100645.28;5049356;28;20033;-72
2022/07/01 05:45:53;;;;;;;13.73;8.50;;;;;;;13.00;100.00;100658.03;5081613;28;20029;-70
2022/07/01 05:48:18;;;;;;;12.07;7.85;;;;;;;12.71;100.00;100623.59;5082676;28;20032;-73
2022/07/01 05:50:44;;;;;;;11.35;7.68;;;;;;;12.97;100.00;100661.72;5049906;28;20093;-72
2022/07/01 05:53:09;;;;;;;11.30;7.82;;;;;;;12.88;100.00;100672.75;5085619;28;20200;-72
2022/07/01 05:55:35;;;;;;;10.80;7.53;;;;;;;12.84;100.00;100665.97;5085558;28;20032;-72
2022/07/01 05:58:05;;;;;;;9.10;7.00;;;;;;;12.87;100.00;100671.06;5047471;28;20849;-71
2022/07/01 06:00:31;;;;;;;12.93;7.30;;;;;;;12.80;100.00;100659.16;5046315;28;20086;-72
2022/07/01 06:02:56;;;;;;;7.97;6.70;;;;;;;12.80;100.00;100660.00;5046319;28;20032;-72
2022/07/01 06:05:22;;;;;;;10.13;7.60;;;;;;;12.76;100.00;100657.63;5066565;28;20499;-73
2022/07/01 06:07:47;;;;;;;25.45;7.32;;;;;;;12.61;100.00;100642.63;5076627;28;20442;-73
2022/07/01 06:10:13;;;;;;;13.93;7.28;;;;;;;12.71;100.00;100657.00;5088823;28;20429;-72
2022/07/01 06:12:38;;;;;;;13.95;7.03;;;;;;;12.78;100.00;100668.91;5088560;28;20024;-72
2022/07/01 06:15:07;;;;;;;10.27;7.00;;;;;;;12.79;100.00;100673.28;5050858;28;20031;-73
2022/07/01 06:17:33;;;;;;;17.30;8.82;;;;;;;12.64;100.00;100653.03;5083246;28;20028;-71
2022/07/01 06:19:59;;;;;;;12.20;8.70;;;;;;;12.80;100.00;100680.25;5041838;28;20421;-71
2022/07/01 06:22:24;;;;;;;17.05;8.93;;;;;;;12.77;100.00;100669.88;5088032;28;20032;-72
2022/07/01 06:24:49;;;;;;;11.50;8.77;;;;;;;12.79;100.00;100657.44;5080258;28;20027;-73
2022/07/01 06:27:15;;;;;;;27.27;9.13;;;;;;;12.93;100.00;100665.44;5054892;28;20448;-72
2022/07/01 06:29:40;;;;;;;18.60;9.52;;;;;;;13.09;100.00;100676.88;5057509;28;20021;-72
2022/07/01 06:32:07;;;;;;;14.65;9.05;;;;;;;13.06;100.00;100650.63;5059884;28;20124;-71
2022/07/01 06:34:33;;;;;;;14.05;9.38;;;;;;;13.32;100.00;100671.16;5057814;28;20028;-72
2022/07/01 06:37:03;;;;;;;13.88;8.65;;;;;;;13.42;100.00;100666.19;5038462;28;20383;-73
2022/07/01 06:39:29;;;;;;;12.95;8.02;;;;;;;13.32;100.00;100642.13;5063356;28;20061;-72
2022/07/01 06:41:55;;;;;;;19.15;8.30;;;;;;;13.60;100.00;100672.19;5023162;28;20032;-71
2022/07/01 06:44:21;;;;;;;12.25;7.57;;;;;;;13.74;100.00;100680.16;5068884;28;20040;-72
2022/07/01 06:46:46;;;;;;;16.85;7.65;;;;;;;13.87;100.00;100675.00;5058730;28;20072;-71
2022/07/01 06:49:12;;;;;;;8.73;5.70;;;;;;;13.90;100.00;100686.25;5084838;28;20459;-72
2022/07/01 06:51:37;;;;;;;8.70;5.25;;;;;;;13.86;100.00;100679.44;5054156;28;20029;-73
2022/07/01 06:54:02;;;;;;;12.63;5.75;;;;;;;13.91;100.00;100687.09;5085329;28;20024;-72
2022/07/01 06:56:28;;;;;;;12.10;5.55;;;;;;;13.98;100.00;100704.28;5085518;28;20493;-74
2022/07/01 06:58:53;;;;;;;11.65;5.60;;;;;;;13.77;100.00;100674.72;5053063;28;20029;-73
2022/07/01 07:01:19;;;;;;;10.73;4.88;;;;;;;13.92;100.00;100700.22;5073682;28;20035;-72
2022/07/01 07:03:44;;;;;;;9.63;4.78;;;;;;;13.89;100.00;100684.53;5062044;28;20070;-72
2022/07/01 07:06:09;;;;;;;13.18;5.10;;;;;;;13.99;100.00;100683.03;5085934;28;20509;-73
2022/07/01 07:08:35;;;;;;;7.15;4.35;;;;;;;13.98;100.00;100684.00;5062974;28;20036;-73
2022/07/01 07:11:00;;;;;;;8.27;5.07;;;;;;;14.09;100.00;100697.41;5083775;28;20028;-71
2022/07/01 07:13:26;;;;;;;7.10;4.22;;;;;;;14.04;100.00;100683.63;5066631;28;20480;-72
2022/07/01 07:15:51;;;;;;;8.20;3.70;;;;;;;14.13;100.00;100704.22;5080252;28;20036;-72
2022/07/01 07:18:17;;;;;;;7.13;3.60;;;;;;;14.09;100.00;100693.94;5062821;28;20359;-73
2022/07/01 07:20:42;;;;;;;7.65;2.78;;;;;;;14.13;100.00;100687.50;5088746;28;20024;-72
2022/07/01 07:23:08;;;;;;;7.50;3.30;;;;;;;14.30;100.00;100705.84;5058508;28;20024;-74
2022/07/01 07:25:33;;;;;;;7.30;3.40;;;;;;;14.19;100.00;100682.69;5089776;28;20039;-73
2022/07/01 07:27:59;;;;;;;5.50;2.53;;;;;;;14.32;100.00;100710.13;5064414;28;20017;-74
2022/07/01 07:30:24;;;;;;;6.07;2.63;;;;;;;14.39;100.00;100726.50;5062747;28;20102;-75
2022/07/01 07:32:50;;;;;;;8.55;3.00;;;;;;;14.33;100.00;100730.34;5070508;28;20024;-73
2022/07/01 07:35:15;;;;;;;6.85;2.80;;;;;;;14.30;100.00;100722.56;5082993;28;20413;-72
2022/07/01 07:37:41;;;;;;;5.25;2.97;;;;;;;14.30;100.00;100721.72;5090191;28;20027;-73
2022/07/01 07:40:09;;;;;;;5.30;3.05;;;;;;;14.38;100.00;100719.50;5058122;28;20039;-73
2022/07/01 07:42:35;;;;;;;9.30;3.38;;;;;;;14.57;100.00;100729.78;5049496;28;20078;-72
2022/07/01 07:45:01;;;;;;;7.47;2.83;;;;;;;14.67;100.00;100721.19;5075201;28;20107;-72
2022/07/01 07:47:26;;;;;;;5.40;2.53;;;;;;;14.63;100.00;100716.22;5055372;28;20111;-74
2022/07/01 07:49:52;;;;;;;6.72;2.65;;;;;;;14.28;100.00;100673.38;5078072;28;20467;-72
2022/07/01 07:52:17;;;;;;;6.25;3.25;;;;;;;14.55;100.00;100726.41;5063119;28;20032;-74
2022/07/01 07:54:43;;;;;;;4.90;2.38;;;;;;;14.63;100.00;100727.63;5090683;28;20473;-74
2022/07/01 07:57:08;;;;;;;6.90;3.03;;;;;;;14.80;100.00;100742.47;5072371;28;20025;-77
2022/07/01 07:59:35;;;;;;;11.63;2.95;;;;;;;14.65;100.00;100694.00;5048157;28;20819;-76
2022/07/01 08:02:00;;;;;;;5.00;2.03;;;;;;;15.02;100.00;100736.66;5078854;28;20028;-73
2022/07/01 08:04:25;;;;;;;7.32;2.45;;;;;;;15.11;100.00;100736.94;5085418;28;20035;-75
2022/07/01 08:06:51;;;;;;;5.07;2.38;;;;;;;15.24;100.00;100737.84;5066137;28;20475;-76
2022/07/01 08:09:16;;;;;;;4.57;2.50;;;;;;;15.32;100.00;100729.41;5058665;28;20504;-75
2022/07/01 08:11:41;;;;;;;5.50;2.10;;;;;;;15.56;100.00;100749.06;5067134;28;20036;-73
2022/07/01 08:14:07;;;;;;;5.05;2.13;;;;;;;15.52;100.00;100705.16;5080875;28;20096;-71
2022/07/01 08:16:32;;;;;;;3.00;1.42;;;;;;;15.81;100.00;100735.06;5082841;28;20028;-74
2022/07/01 08:18:58;;;;;;;8.75;2.22;;;;;;;15.91;100.00;100733.50;5092561;28;20031;-76
2022/07/01 08:21:23;;;;;;;4.50;1.90;;;;;;;16.08;100.00;100742.97;5079833;28;20026;-74
2022/07/01 08:23:48;;;;;;;4.82;1.63;;;;;;;16.00;100.00;100755.88;5075136;28;20036;-75
2022/07/01 08:26:16;;;;;;;4.68;1.80;;;;;;;15.90;100.00;100750.34;5044244;28;20578;-76
2022/07/01 08:28:41;;;;;;;4.22;1.90;;;;;;;15.92;100.00;100760.84;5093378;28;20027;-75
2022/07/01 08:31:07;;;;;;;4.57;1.95;;;;;;;15.79;100.00;100760.78;5092021;28;20485;-78
2022/07/01 08:33:32;;;;;;;6.65;2.20;;;;;;;15.69;100.00;100743.78;5070465;28;20029;-72
2022/07/01 08:35:58;;;;;;;6.57;1.60;;;;;;;15.75;100.00;100754.84;5052017;28;20028;-70
2022/07/01 08:38:23;;;;;;;3.92;1.63;;;;;;;15.75;100.00;100775.19;5057661;28;20038;-69
2022/07/01 08:40:48;;;;;;;4.70;1.50;;;;;;;15.59;100.00;100767.41;5078545;28;20487;-72
2022/07/01 08:43:14;;;;;;;3.10;1.52;;;;;;;15.61;100.00;100783.22;5068219;28;20034;-76
2022/07/01 08:45:39;;;;;;;5.13;1.33;;;;;;;15.61;100.00;100776.13;5071857;28;20036;-73
2022/07/01 08:48:05;;;;;;;6.47;1.45;;;;;;;15.76;100.00;100776.88;5053203;28;20032;-73
2022/07/01 08:50:35;;;;;;;4.03;1.75;;;;;;;15.82;100.00;100760.59;5089115;28;20024;-74
2022/07/01 08:53:01;;;;;;;4.80;1.55;;;;;;;15.89;100.00;100771.63;5054960;28;20021;-77
2022/07/01 08:55:27;;;;;;;4.70;1.65;;;;;;;15.84;100.00;100753.41;5042440;28;20043;-75
2022/07/01 08:57:53;;;;;;;3.28;1.35;;;;;;;16.16;100.00;100775.09;5043471;28;20029;-78
2022/07/01 09:00:19;;;;;;;4.35;1.80;;;;;;;16.33;100.00;100783.63;5050103;28;20502;-76
2022/07/01 09:03:00;;;;;;;4.05;1.50;;;;;;;16.45;100.00;100783.75;5085756;28;20116;-77
2022/07/01 09:05:27;;;;;;;4.47;1.50;;;;;;;16.46;100.00;100767.72;5039759;28;20123;-75
2022/07/01 09:08:02;;;;;;;4.88;2.25;;;;;;;16.62;100.00;100783.47;5077582;28;20115;-71
2022/07/01 09:10:31;;;;;;;2.55;1.08;;;;;;;16.56;100.00;100768.81;5072173;28;20033;-72
2022/07/01 09:12:58;;;;;;;3.47;1.55;;;;;;;16.72;100.00;100789.84;5044237;28;20036;-73
2022/07/01 09:15:28;;;;;;;9.73;2.10;;;;;;;16.79;100.00;100807.03;5063485;28;20032;-75
2022/07/01 09:18:15;;;;;;;4.43;1.70;;;;;;;16.92;100.00;100802.56;5065046;28;20112;-75
2022/07/01 09:20:47;;;;;;;4.18;1.83;;;;;;;17.06;100.00;100799.81;5061437;28;20509;-77
2022/07/01 09:23:15;;;;;;;4.82;1.42;;;;;;;17.19;100.00;100800.63;5060909;28;20025;-73
2022/07/01 09:25:44;;;;;;;4.75;1.30;;;;;;;17.23;100.00;100807.44;5081645;28;20033;-74
2022/07/01 09:28:13;;;;;;;4.28;1.60;;;;;;;16.92;100.00;100753.94;5046005;28;20029;-73
2022/07/01 09:30:41;;;;;;;3.80;1.50;;;;;;;17.08;100.00;100795.22;5064836;28;20028;-75
2022/07/01 09:33:18;;;;;;;4.50;1.52;;;;;;;17.05;100.00;100797.25;5043723;28;20486;-76
2022/07/01 09:35:45;;;;;;;3.20;1.02;;;;;;;17.19;100.00;100816.56;5024797;28;20425;-73
2022/07/01 09:38:13;;;;;;;4.50;1.55;;;;;;;17.28;100.00;100807.94;5061312;28;20020;-76
2022/07/01 09:40:52;;;;;;;5.80;1.77;;;;;;;17.00;100.00;100794.91;5075845;28;20028;-74
2022/07/01 09:43:17;;;;;;;5.40;1.52;;;;;;;17.03;100.00;100813.31;5082386;28;20031;-74
2022/07/01 09:45:49;;;;;;;3.60;1.63;;;;;;;16.70;100.00;100750.13;5090846;28;20031;-75
2022/07/01 09:48:14;;;;;;;4.60;1.55;;;;;;;17.19;100.00;100810.41;5045212;28;20028;-74
2022/07/01 09:50:40;;;;;;;3.30;1.25;;;;;;;17.32;100.00;100808.56;5067968;28;20039;-75
2022/07/01 09:53:05;;;;;;;5.55;1.63;;;;;;;17.50;100.00;100811.72;5077325;28;20461;-74
2022/07/01 09:55:31;;;;;;;3.33;1.67;;;;;;;17.43;100.00;100813.13;5061443;28;20109;-74
2022/07/01 09:57:57;;;;;;;4.20;1.17;;;;;;;17.43;100.00;100818.44;5052262;28;20470;-72
2022/07/01 10:00:22;;;;;;;3.55;1.50;;;;;;;17.52;100.00;100809.78;5069586;28;20036;-74
2022/07/01 10:02:50;;;;;;;6.63;1.52;;;;;;;17.64;100.00;100815.09;5073756;28;20055;-73
2022/07/01 10:05:20;;;;;;;3.90;1.48;;;;;;;17.47;100.00;100793.34;5072686;28;20060;-72
2022/07/01 10:08:15;;;;;;;6.47;1.63;;;;;;;17.54;100.00;100829.97;5054300;28;20020;-75
2022/07/01 10:10:54;;;;;;;4.70;1.30;;;;;;;17.62;100.00;100829.44;5059845;28;20048;-72
2022/07/01 10:13:24;;;;;;;4.07;1.65;;;;;;;17.77;100.00;100823.03;5072601;28;20036;-74
2022/07/01 10:15:50;;;;;;;5.53;1.52;;;;;;;17.85;100.00;100823.31;5081131;28;20110;-75
2022/07/01 10:18:28;;;;;;;3.63;1.52;;;;;;;17.75;100.00;100822.28;5072706;28;20034;-76
2022/07/01 10:20:55;;;;;;;2.47;0.98;;;;;;;17.80;100.00;100820.16;5049911;28;20105;-73
2022/07/01 10:23:22;;;;;;;3.75;1.20;;;;;;;17.88;100.00;100833.72;5058189;28;20021;-70
2022/07/01 10:25:49;;;;;;;3.35;1.27;;;;;;;17.77;100.00;100833.66;5074661;28;20107;-73
2022/07/01 10:28:16;;;;;;;4.03;1.40;;;;;;;17.74;100.00;100815.28;5082150;28;20387;-75
2022/07/01 10:30:59;;;;;;;5.38;1.88;;;;;;;17.76;100.00;100835.47;5080408;28;20021;-72
2022/07/01 10:33:34;;;;;;;5.47;2.13;;;;;;;17.86;100.00;100838.31;5068908;28;20039;-72
2022/07/01 10:36:06;;;;;;;6.10;1.45;;;;;;;17.88;100.00;100821.28;5074212;28;20024;-75
2022/07/01 10:38:32;;;;;;;4.35;1.50;;;;;;;17.92;100.00;100819.22;5057085;28;20028;-73
2022/07/01 10:41:09;;;;;;;3.97;1.98;;;;;;;17.93;100.00;100828.91;5038056;28;20039;-73
2022/07/01 10:43:36;;;;;;;2.85;1.40;;;;;;;17.89;100.00;100832.75;5043719;28;20386;-72
2022/07/01 10:46:01;;;;;;;6.45;1.40;;;;;;;17.66;100.00;100796.38;5067698;28;20067;-75
2022/07/01 10:48:31;;;;;;;4.32;1.58;;;;;;;17.93;100.00;100828.91;5036928;28;20033;-76
2022/07/01 10:50:56;;;;;;;3.28;1.40;;;;;;;18.10;100.00;100833.84;5073050;28;20043;-74
2022/07/01 10:53:21;;;;;;;3.35;1.40;;;;;;;18.24;100.00;100817.69;5059514;28;20036;-71
2022/07/01 10:55:48;;;;;;;5.35;1.70;;;;;;;18.16;100.00;100801.44;5060353;28;20394;-74
2022/07/01 10:58:17;;;;;;;4.28;1.67;;;;;;;18.39;100.00;100813.00;5075348;28;20031;-72
2022/07/01 11:00:43;;;;;;;5.65;1.30;;;;;;;18.68;100.00;100816.16;5060920;28;20505;-74
2022/07/01 11:03:14;;;;;;;12.82;1.90;;;;;;;18.86;100.00;100818.22;5060561;28;20020;-73
2022/07/01 11:05:41;;;;;;;4.85;1.98;;;;;;;18.92;100.00;100810.75;5081075;28;20479;-72
2022/07/01 11:08:08;;;;;;;7.38;1.35;;;;;;;18.72;100.00;100817.63;5085072;28;20029;-74
2022/07/01 11:10:33;;;;;;;4.40;1.60;;;;;;;18.62;100.00;100792.69;5046365;28;20482;-73
2022/07/01 11:13:00;;;;;;;4.57;1.58;;;;;;;18.41;100.00;100780.97;5086476;28;20021;-74
2022/07/01 11:15:28;;;;;;;3.00;1.50;;;;;;;18.46;100.00;100802.75;5042411;28;20036;-74